sensor_id;sensor_type;location;lat;lon;timestamp;P1;durP1;ratioP1;P2;durP2;ratioP2
73642;SDS011;61938;48.652;9.292;2023-04-06T00:01:09;24.25;;;12.65;;
73642;SDS011;61938;48.652;9.292;2023-04-06T00:03:35;23.45;;;12.13;;
73642;SDS011;61938;48.652;9.292;2023-04-06T00:06:01;31.85;;;13.68;;
73642;SDS011;61938;48.652;9.292;2023-04-06T00:08:27;23.80;;;11.82;;
73642;SDS011;61938;48.652;9.292;2023-04-06T00:10:53;25.95;;;11.32;;
73642;SDS011;61938;48.652;9.292;2023-04-06T00:13:19;24.35;;;11.68;;
73642;SDS011;61938;48.652;9.292;2023-04-06T00:15:45;23.60;;;11.52;;
73642;SDS011;61938;48.652;9.292;2023-04-06T00:18:10;23.77;;;11.88;;
73642;SDS011;61938;48.652;9.292;2023-04-06T00:20:36;27.27;;;12.80;;
73642;SDS011;61938;48.652;9.292;2023-04-06T00:23:02;28.52;;;11.70;;
73642;SDS011;61938;48.652;9.292;2023-04-06T00:25:27;24.88;;;12.80;;
73642;SDS011;61938;48.652;9.292;2023-04-06T00:27:53;25.92;;;12.30;;
73642;SDS011;61938;48.652;9.292;2023-04-06T00:30:18;24.88;;;12.45;;
73642;SDS011;61938;48.652;9.292;2023-04-06T00:32:44;27.00;;;12.52;;
73642;SDS011;61938;48.652;9.292;2023-04-06T00:35:10;28.15;;;11.98;;
73642;SDS011;61938;48.652;9.292;2023-04-06T00:37:35;23.95;;;13.00;;
73642;SDS011;61938;48.652;9.292;2023-04-06T00:40:01;27.50;;;12.65;;
73642;SDS011;61938;48.652;9.292;2023-04-06T00:42:30;24.27;;;13.23;;
73642;SDS011;61938;48.652;9.292;2023-04-06T00:44:56;29.75;;;14.02;;
73642;SDS011;61938;48.652;9.292;2023-04-06T00:47:24;24.08;;;13.27;;
73642;SDS011;61938;48.652;9.292;2023-04-06T00:49:50;24.90;;;12.90;;
73642;SDS011;61938;48.652;9.292;2023-04-06T00:52:16;26.27;;;13.10;;
73642;SDS011;61938;48.652;9.292;2023-04-06T00:54:42;23.80;;;13.52;;
73642;SDS011;61938;48.652;9.292;2023-04-06T00:57:11;28.50;;;14.32;;
73642;SDS011;61938;48.652;9.292;2023-04-06T00:59:37;30.88;;;13.82;;
73642;SDS011;61938;48.652;9.292;2023-04-06T01:02:03;29.75;;;14.40;;
73642;SDS011;61938;48.652;9.292;2023-04-06T01:04:28;26.08;;;13.63;;
73642;SDS011;61938;48.652;9.292;2023-04-06T01:06:54;26.10;;;13.95;;
73642;SDS011;61938;48.652;9.292;2023-04-06T01:09:20;29.75;;;13.85;;
73642;SDS011;61938;48.652;9.292;2023-04-06T01:11:46;28.15;;;14.20;;
73642;SDS011;61938;48.652;9.292;2023-04-06T01:14:12;28.10;;;14.10;;
73642;SDS011;61938;48.652;9.292;2023-04-06T01:16:37;29.17;;;13.52;;
73642;SDS011;61938;48.652;9.292;2023-04-06T01:19:10;28.75;;;14.95;;
73642;SDS011;61938;48.652;9.292;2023-04-06T01:21:37;26.70;;;12.93;;
73642;SDS011;61938;48.652;9.292;2023-04-06T01:24:03;26.73;;;14.20;;
73642;SDS011;61938;48.652;9.292;2023-04-06T01:26:29;30.30;;;14.38;;
73642;SDS011;61938;48.652;9.292;2023-04-06T01:28:55;28.45;;;15.15;;
73642;SDS011;61938;48.652;9.292;2023-04-06T01:31:21;29.83;;;14.15;;
73642;SDS011;61938;48.652;9.292;2023-04-06T01:33:47;30.17;;;14.07;;
73642;SDS011;61938;48.652;9.292;2023-04-06T01:36:13;37.13;;;14.40;;
73642;SDS011;61938;48.652;9.292;2023-04-06T01:38:39;28.38;;;14.13;;
73642;SDS011;61938;48.652;9.292;2023-04-06T01:41:06;25.98;;;13.52;;
73642;SDS011;61938;48.652;9.292;2023-04-06T01:43:32;26.23;;;13.98;;
73642;SDS011;61938;48.652;9.292;2023-04-06T01:45:58;28.55;;;14.60;;
73642;SDS011;61938;48.652;9.292;2023-04-06T01:48:24;30.45;;;14.32;;
73642;SDS011;61938;48.652;9.292;2023-04-06T01:50:50;28.00;;;14.60;;
73642;SDS011;61938;48.652;9.292;2023-04-06T01:53:16;30.80;;;13.48;;
73642;SDS011;61938;48.652;9.292;2023-04-06T01:55:41;29.92;;;14.00;;
73642;SDS011;61938;48.652;9.292;2023-04-06T01:58:07;23.83;;;13.00;;
73642;SDS011;61938;48.652;9.292;2023-04-06T02:00:32;23.63;;;11.95;;
73642;SDS011;61938;48.652;9.292;2023-04-06T02:02:59;25.35;;;12.90;;
73642;SDS011;61938;48.652;9.292;2023-04-06T02:05:25;28.45;;;13.10;;
73642;SDS011;61938;48.652;9.292;2023-04-06T02:07:50;23.90;;;12.40;;
73642;SDS011;61938;48.652;9.292;2023-04-06T02:10:16;26.13;;;12.80;;
73642;SDS011;61938;48.652;9.292;2023-04-06T02:12:42;26.30;;;13.30;;
73642;SDS011;61938;48.652;9.292;2023-04-06T02:15:08;27.13;;;14.15;;
73642;SDS011;61938;48.652;9.292;2023-04-06T02:17:33;27.63;;;13.55;;
73642;SDS011;61938;48.652;9.292;2023-04-06T02:19:59;24.38;;;13.13;;
73642;SDS011;61938;48.652;9.292;2023-04-06T02:22:25;31.90;;;14.05;;
73642;SDS011;61938;48.652;9.292;2023-04-06T02:24:50;28.95;;;14.18;;
73642;SDS011;61938;48.652;9.292;2023-04-06T02:27:16;30.20;;;15.30;;
73642;SDS011;61938;48.652;9.292;2023-04-06T02:29:41;29.05;;;14.15;;
73642;SDS011;61938;48.652;9.292;2023-04-06T02:32:07;29.67;;;13.30;;
73642;SDS011;61938;48.652;9.292;2023-04-06T02:34:32;27.42;;;12.80;;
73642;SDS011;61938;48.652;9.292;2023-04-06T02:36:58;27.85;;;13.50;;
73642;SDS011;61938;48.652;9.292;2023-04-06T02:39:24;29.92;;;13.45;;
73642;SDS011;61938;48.652;9.292;2023-04-06T02:41:49;25.50;;;13.20;;
73642;SDS011;61938;48.652;9.292;2023-04-06T02:44:15;26.50;;;12.90;;
73642;SDS011;61938;48.652;9.292;2023-04-06T02:46:40;28.50;;;13.50;;
73642;SDS011;61938;48.652;9.292;2023-04-06T02:49:06;25.00;;;12.95;;
73642;SDS011;61938;48.652;9.292;2023-04-06T02:51:31;23.88;;;12.77;;
73642;SDS011;61938;48.652;9.292;2023-04-06T02:53:58;25.70;;;13.55;;
73642;SDS011;61938;48.652;9.292;2023-04-06T02:56:23;24.63;;;12.75;;
73642;SDS011;61938;48.652;9.292;2023-04-06T02:58:49;25.92;;;12.93;;
73642;SDS011;61938;48.652;9.292;2023-04-06T03:01:15;29.50;;;11.65;;
73642;SDS011;61938;48.652;9.292;2023-04-06T03:03:40;26.20;;;12.48;;
73642;SDS011;61938;48.652;9.292;2023-04-06T03:06:06;26.90;;;12.63;;
73642;SDS011;61938;48.652;9.292;2023-04-06T03:08:31;26.90;;;12.85;;
73642;SDS011;61938;48.652;9.292;2023-04-06T03:10:57;23.33;;;12.60;;
73642;SDS011;61938;48.652;9.292;2023-04-06T03:13:22;23.45;;;12.43;;
73642;SDS011;61938;48.652;9.292;2023-04-06T03:15:48;29.38;;;13.50;;
73642;SDS011;61938;48.652;9.292;2023-04-06T03:18:13;27.70;;;13.02;;
73642;SDS011;61938;48.652;9.292;2023-04-06T03:20:39;28.83;;;12.52;;
73642;SDS011;61938;48.652;9.292;2023-04-06T03:23:05;25.20;;;13.20;;
73642;SDS011;61938;48.652;9.292;2023-04-06T03:25:30;24.17;;;12.02;;
73642;SDS011;61938;48.652;9.292;2023-04-06T03:27:56;30.75;;;12.73;;
73642;SDS011;61938;48.652;9.292;2023-04-06T03:30:22;28.63;;;12.80;;
73642;SDS011;61938;48.652;9.292;2023-04-06T03:32:47;27.40;;;12.75;;
73642;SDS011;61938;48.652;9.292;2023-04-06T03:35:13;29.63;;;13.43;;
73642;SDS011;61938;48.652;9.292;2023-04-06T03:37:38;21.67;;;11.50;;
73642;SDS011;61938;48.652;9.292;2023-04-06T03:40:04;27.05;;;13.30;;
73642;SDS011;61938;48.652;9.292;2023-04-06T03:42:30;24.02;;;12.43;;
73642;SDS011;61938;48.652;9.292;2023-04-06T03:44:57;22.40;;;11.10;;
73642;SDS011;61938;48.652;9.292;2023-04-06T03:47:23;29.98;;;13.10;;
73642;SDS011;61938;48.652;9.292;2023-04-06T03:49:49;24.42;;;12.43;;
73642;SDS011;61938;48.652;9.292;2023-04-06T03:52:14;28.77;;;13.07;;
73642;SDS011;61938;48.652;9.292;2023-04-06T03:54:40;25.13;;;12.23;;
73642;SDS011;61938;48.652;9.292;2023-04-06T03:57:05;25.98;;;12.38;;
73642;SDS011;61938;48.652;9.292;2023-04-06T03:59:31;27.67;;;12.70;;
73642;SDS011;61938;48.652;9.292;2023-04-06T04:01:56;23.77;;;12.15;;
73642;SDS011;61938;48.652;9.292;2023-04-06T04:04:22;34.78;;;13.40;;
73642;SDS011;61938;48.652;9.292;2023-04-06T04:06:47;26.17;;;12.60;;
73642;SDS011;61938;48.652;9.292;2023-04-06T04:09:13;23.20;;;11.82;;
73642;SDS011;61938;48.652;9.292;2023-04-06T04:11:38;26.30;;;12.57;;
73642;SDS011;61938;48.652;9.292;2023-04-06T04:14:04;26.73;;;12.95;;
73642;SDS011;61938;48.652;9.292;2023-04-06T04:16:29;31.00;;;13.27;;
73642;SDS011;61938;48.652;9.292;2023-04-06T04:18:55;32.08;;;13.88;;
73642;SDS011;61938;48.652;9.292;2023-04-06T04:21:22;27.63;;;12.88;;
73642;SDS011;61938;48.652;9.292;2023-04-06T04:23:48;29.63;;;12.45;;
73642;SDS011;61938;48.652;9.292;2023-04-06T04:26:14;26.85;;;12.02;;
73642;SDS011;61938;48.652;9.292;2023-04-06T04:28:39;25.15;;;13.30;;
73642;SDS011;61938;48.652;9.292;2023-04-06T04:31:05;30.17;;;13.80;;
73642;SDS011;61938;48.652;9.292;2023-04-06T04:33:30;27.95;;;12.27;;
73642;SDS011;61938;48.652;9.292;2023-04-06T04:35:56;29.88;;;12.88;;
73642;SDS011;61938;48.652;9.292;2023-04-06T04:38:21;26.27;;;13.43;;
73642;SDS011;61938;48.652;9.292;2023-04-06T04:40:47;27.95;;;13.63;;
73642;SDS011;61938;48.652;9.292;2023-04-06T04:43:12;28.40;;;13.52;;
73642;SDS011;61938;48.652;9.292;2023-04-06T04:45:38;32.97;;;13.57;;
73642;SDS011;61938;48.652;9.292;2023-04-06T04:48:03;29.80;;;13.50;;
73642;SDS011;61938;48.652;9.292;2023-04-06T04:50:30;25.23;;;12.85;;
73642;SDS011;61938;48.652;9.292;2023-04-06T04:52:56;32.67;;;14.90;;
73642;SDS011;61938;48.652;9.292;2023-04-06T04:55:22;31.60;;;13.45;;
73642;SDS011;61938;48.652;9.292;2023-04-06T04:57:47;25.55;;;12.90;;
73642;SDS011;61938;48.652;9.292;2023-04-06T05:00:13;33.97;;;13.10;;
73642;SDS011;61938;48.652;9.292;2023-04-06T05:02:39;26.58;;;13.63;;
73642;SDS011;61938;48.652;9.292;2023-04-06T05:05:05;32.30;;;13.55;;
73642;SDS011;61938;48.652;9.292;2023-04-06T05:07:31;27.15;;;13.63;;
73642;SDS011;61938;48.652;9.292;2023-04-06T05:09:56;30.20;;;14.20;;
73642;SDS011;61938;48.652;9.292;2023-04-06T05:12:22;32.65;;;14.52;;
73642;SDS011;61938;48.652;9.292;2023-04-06T05:14:47;34.45;;;14.07;;
73642;SDS011;61938;48.652;9.292;2023-04-06T05:17:13;35.78;;;16.58;;
73642;SDS011;61938;48.652;9.292;2023-04-06T05:19:41;27.75;;;14.95;;
73642;SDS011;61938;48.652;9.292;2023-04-06T05:22:07;29.10;;;14.50;;
73642;SDS011;61938;48.652;9.292;2023-04-06T05:24:32;32.72;;;14.27;;
73642;SDS011;61938;48.652;9.292;2023-04-06T05:26:58;35.63;;;14.98;;
73642;SDS011;61938;48.652;9.292;2023-04-06T05:29:25;31.77;;;13.70;;
73642;SDS011;61938;48.652;9.292;2023-04-06T05:31:51;28.98;;;14.50;;
73642;SDS011;61938;48.652;9.292;2023-04-06T05:34:16;34.15;;;14.70;;
73642;SDS011;61938;48.652;9.292;2023-04-06T05:36:42;32.50;;;15.48;;
73642;SDS011;61938;48.652;9.292;2023-04-06T05:39:07;32.38;;;14.43;;
73642;SDS011;61938;48.652;9.292;2023-04-06T05:41:33;30.15;;;13.65;;
73642;SDS011;61938;48.652;9.292;2023-04-06T05:43:58;33.08;;;14.63;;
73642;SDS011;61938;48.652;9.292;2023-04-06T05:46:24;29.88;;;14.02;;
73642;SDS011;61938;48.652;9.292;2023-04-06T05:48:50;37.20;;;15.48;;
73642;SDS011;61938;48.652;9.292;2023-04-06T05:51:15;27.05;;;14.20;;
73642;SDS011;61938;48.652;9.292;2023-04-06T05:53:41;27.73;;;14.98;;
73642;SDS011;61938;48.652;9.292;2023-04-06T05:56:06;34.50;;;14.68;;
73642;SDS011;61938;48.652;9.292;2023-04-06T05:58:32;29.95;;;14.90;;
73642;SDS011;61938;48.652;9.292;2023-04-06T06:01:00;33.45;;;16.05;;
73642;SDS011;61938;48.652;9.292;2023-04-06T06:03:27;33.70;;;14.55;;
73642;SDS011;61938;48.652;9.292;2023-04-06T06:05:53;28.35;;;14.73;;
73642;SDS011;61938;48.652;9.292;2023-04-06T06:08:19;30.10;;;15.13;;
73642;SDS011;61938;48.652;9.292;2023-04-06T06:10:44;27.63;;;14.98;;
73642;SDS011;61938;48.652;9.292;2023-04-06T06:13:10;27.50;;;14.98;;
73642;SDS011;61938;48.652;9.292;2023-04-06T06:15:35;30.50;;;15.98;;
73642;SDS011;61938;48.652;9.292;2023-04-06T06:18:01;33.38;;;15.15;;
73642;SDS011;61938;48.652;9.292;2023-04-06T06:20:27;29.08;;;15.23;;
73642;SDS011;61938;48.652;9.292;2023-04-06T06:22:52;28.42;;;15.48;;
73642;SDS011;61938;48.652;9.292;2023-04-06T06:25:21;38.42;;;16.48;;
73642;SDS011;61938;48.652;9.292;2023-04-06T06:27:47;28.15;;;15.50;;
73642;SDS011;61938;48.652;9.292;2023-04-06T06:30:12;30.95;;;15.57;;
73642;SDS011;61938;48.652;9.292;2023-04-06T06:32:38;29.33;;;15.38;;
73642;SDS011;61938;48.652;9.292;2023-04-06T06:35:04;29.65;;;15.98;;
73642;SDS011;61938;48.652;9.292;2023-04-06T06:37:30;26.20;;;14.30;;
73642;SDS011;61938;48.652;9.292;2023-04-06T06:39:55;30.73;;;14.70;;
73642;SDS011;61938;48.652;9.292;2023-04-06T06:42:21;28.70;;;14.45;;
73642;SDS011;61938;48.652;9.292;2023-04-06T06:44:47;28.02;;;14.18;;
73642;SDS011;61938;48.652;9.292;2023-04-06T06:47:12;27.50;;;15.85;;
73642;SDS011;61938;48.652;9.292;2023-04-06T06:49:38;29.27;;;15.02;;
73642;SDS011;61938;48.652;9.292;2023-04-06T06:52:03;28.98;;;14.70;;
73642;SDS011;61938;48.652;9.292;2023-04-06T06:54:29;28.63;;;15.20;;
73642;SDS011;61938;48.652;9.292;2023-04-06T06:56:54;34.03;;;15.63;;
73642;SDS011;61938;48.652;9.292;2023-04-06T06:59:20;34.40;;;15.75;;
73642;SDS011;61938;48.652;9.292;2023-04-06T07:01:46;29.85;;;15.40;;
73642;SDS011;61938;48.652;9.292;2023-04-06T07:04:11;30.60;;;15.80;;
73642;SDS011;61938;48.652;9.292;2023-04-06T07:06:37;34.30;;;16.35;;
73642;SDS011;61938;48.652;9.292;2023-04-06T07:09:03;31.17;;;15.82;;
73642;SDS011;61938;48.652;9.292;2023-04-06T07:11:29;31.85;;;15.73;;
73642;SDS011;61938;48.652;9.292;2023-04-06T07:13:55;31.52;;;15.60;;
73642;SDS011;61938;48.652;9.292;2023-04-06T07:16:21;27.33;;;15.25;;
73642;SDS011;61938;48.652;9.292;2023-04-06T07:18:46;26.20;;;15.40;;
73642;SDS011;61938;48.652;9.292;2023-04-06T07:21:14;27.67;;;14.60;;
73642;SDS011;61938;48.652;9.292;2023-04-06T07:23:39;26.95;;;15.32;;
73642;SDS011;61938;48.652;9.292;2023-04-06T07:26:05;29.38;;;14.55;;
73642;SDS011;61938;48.652;9.292;2023-04-06T07:28:31;29.30;;;14.50;;
73642;SDS011;61938;48.652;9.292;2023-04-06T07:30:56;26.10;;;15.02;;
73642;SDS011;61938;48.652;9.292;2023-04-06T07:33:22;30.73;;;14.77;;
73642;SDS011;61938;48.652;9.292;2023-04-06T07:35:47;31.08;;;14.82;;
73642;SDS011;61938;48.652;9.292;2023-04-06T07:38:16;27.95;;;14.68;;
73642;SDS011;61938;48.652;9.292;2023-04-06T07:40:50;28.35;;;14.80;;
73642;SDS011;61938;48.652;9.292;2023-04-06T07:43:16;27.77;;;14.45;;
73642;SDS011;61938;48.652;9.292;2023-04-06T07:45:41;26.38;;;14.57;;
73642;SDS011;61938;48.652;9.292;2023-04-06T07:48:07;30.23;;;14.93;;
73642;SDS011;61938;48.652;9.292;2023-04-06T07:50:51;22.63;;;14.00;;
73642;SDS011;61938;48.652;9.292;2023-04-06T07:53:16;24.08;;;13.85;;
73642;SDS011;61938;48.652;9.292;2023-04-06T07:55:51;27.55;;;14.68;;
73642;SDS011;61938;48.652;9.292;2023-04-06T07:58:16;23.48;;;13.98;;
73642;SDS011;61938;48.652;9.292;2023-04-06T08:00:42;27.73;;;13.60;;
73642;SDS011;61938;48.652;9.292;2023-04-06T08:03:07;24.17;;;13.68;;
73642;SDS011;61938;48.652;9.292;2023-04-06T08:05:36;25.92;;;13.95;;
73642;SDS011;61938;48.652;9.292;2023-04-06T08:08:01;22.55;;;13.40;;
73642;SDS011;61938;48.652;9.292;2023-04-06T08:10:27;32.05;;;13.18;;
73642;SDS011;61938;48.652;9.292;2023-04-06T08:12:53;30.35;;;14.40;;
73642;SDS011;61938;48.652;9.292;2023-04-06T08:15:18;26.35;;;13.75;;
73642;SDS011;61938;48.652;9.292;2023-04-06T08:17:44;29.90;;;14.20;;
73642;SDS011;61938;48.652;9.292;2023-04-06T08:20:10;22.77;;;12.38;;
73642;SDS011;61938;48.652;9.292;2023-04-06T08:22:35;24.60;;;13.13;;
73642;SDS011;61938;48.652;9.292;2023-04-06T08:25:01;24.40;;;13.90;;
73642;SDS011;61938;48.652;9.292;2023-04-06T08:27:26;25.75;;;13.43;;
73642;SDS011;61938;48.652;9.292;2023-04-06T08:29:52;26.08;;;13.02;;
73642;SDS011;61938;48.652;9.292;2023-04-06T08:32:17;24.90;;;12.43;;
73642;SDS011;61938;48.652;9.292;2023-04-06T08:34:43;26.63;;;12.13;;
73642;SDS011;61938;48.652;9.292;2023-04-06T08:37:08;24.38;;;13.20;;
73642;SDS011;61938;48.652;9.292;2023-04-06T08:39:34;26.10;;;14.13;;
73642;SDS011;61938;48.652;9.292;2023-04-06T08:42:00;28.15;;;13.07;;
73642;SDS011;61938;48.652;9.292;2023-04-06T08:44:27;20.98;;;12.63;;
73642;SDS011;61938;48.652;9.292;2023-04-06T08:46:57;23.50;;;12.88;;
73642;SDS011;61938;48.652;9.292;2023-04-06T08:49:23;23.40;;;11.75;;
73642;SDS011;61938;48.652;9.292;2023-04-06T08:51:49;23.08;;;13.38;;
73642;SDS011;61938;48.652;9.292;2023-04-06T08:54:15;22.75;;;12.48;;
73642;SDS011;61938;48.652;9.292;2023-04-06T08:56:44;25.23;;;12.50;;
73642;SDS011;61938;48.652;9.292;2023-04-06T08:59:10;20.80;;;12.07;;
73642;SDS011;61938;48.652;9.292;2023-04-06T09:01:38;22.23;;;11.73;;
73642;SDS011;61938;48.652;9.292;2023-04-06T09:04:06;25.17;;;14.20;;
73642;SDS011;61938;48.652;9.292;2023-04-06T09:06:35;23.75;;;12.40;;
73642;SDS011;61938;48.652;9.292;2023-04-06T09:09:01;26.13;;;13.60;;
73642;SDS011;61938;48.652;9.292;2023-04-06T09:11:27;25.80;;;13.43;;
73642;SDS011;61938;48.652;9.292;2023-04-06T09:13:56;22.23;;;12.75;;
73642;SDS011;61938;48.652;9.292;2023-04-06T09:16:38;24.02;;;11.70;;
73642;SDS011;61938;48.652;9.292;2023-04-06T09:19:05;27.52;;;11.98;;
73642;SDS011;61938;48.652;9.292;2023-04-06T09:21:34;19.60;;;11.82;;
73642;SDS011;61938;48.652;9.292;2023-04-06T09:24:05;29.73;;;12.87;;
73642;SDS011;61938;48.652;9.292;2023-04-06T09:26:32;24.35;;;12.10;;
73642;SDS011;61938;48.652;9.292;2023-04-06T09:29:32;23.75;;;12.13;;
73642;SDS011;61938;48.652;9.292;2023-04-06T09:32:01;21.10;;;11.43;;
73642;SDS011;61938;48.652;9.292;2023-04-06T09:34:31;26.38;;;12.20;;
73642;SDS011;61938;48.652;9.292;2023-04-06T09:40:01;24.48;;;11.70;;
73642;SDS011;61938;48.652;9.292;2023-04-06T09:42:34;22.05;;;12.18;;
73642;SDS011;61938;48.652;9.292;2023-04-06T09:45:00;22.90;;;11.45;;
73642;SDS011;61938;48.652;9.292;2023-04-06T09:47:26;22.52;;;10.93;;
73642;SDS011;61938;48.652;9.292;2023-04-06T09:49:55;19.88;;;11.35;;
73642;SDS011;61938;48.652;9.292;2023-04-06T09:52:24;26.33;;;12.13;;
73642;SDS011;61938;48.652;9.292;2023-04-06T09:54:56;18.58;;;10.00;;
73642;SDS011;61938;48.652;9.292;2023-04-06T09:57:29;18.67;;;9.68;;
73642;SDS011;61938;48.652;9.292;2023-04-06T10:00:03;17.13;;;9.13;;
73642;SDS011;61938;48.652;9.292;2023-04-06T10:05:33;16.38;;;9.60;;
73642;SDS011;61938;48.652;9.292;2023-04-06T10:08:19;17.27;;;10.02;;
73642;SDS011;61938;48.652;9.292;2023-04-06T10:10:47;17.85;;;9.35;;
73642;SDS011;61938;48.652;9.292;2023-04-06T10:13:15;17.13;;;9.32;;
73642;SDS011;61938;48.652;9.292;2023-04-06T10:15:41;17.50;;;9.57;;
73642;SDS011;61938;48.652;9.292;2023-04-06T10:18:07;18.38;;;10.57;;
73642;SDS011;61938;48.652;9.292;2023-04-06T10:20:42;18.05;;;9.80;;
73642;SDS011;61938;48.652;9.292;2023-04-06T10:23:37;18.48;;;9.30;;
73642;SDS011;61938;48.652;9.292;2023-04-06T10:26:16;23.50;;;10.45;;
73642;SDS011;61938;48.652;9.292;2023-04-06T10:28:45;24.90;;;10.25;;
73642;SDS011;61938;48.652;9.292;2023-04-06T10:31:12;16.40;;;9.52;;
73642;SDS011;61938;48.652;9.292;2023-04-06T10:33:37;16.30;;;9.77;;
73642;SDS011;61938;48.652;9.292;2023-04-06T10:36:13;17.48;;;9.30;;
73642;SDS011;61938;48.652;9.292;2023-04-06T10:38:40;18.40;;;9.48;;
73642;SDS011;61938;48.652;9.292;2023-04-06T10:41:06;15.13;;;9.88;;
73642;SDS011;61938;48.652;9.292;2023-04-06T10:43:34;18.35;;;9.80;;
73642;SDS011;61938;48.652;9.292;2023-04-06T10:46:05;17.35;;;9.93;;
73642;SDS011;61938;48.652;9.292;2023-04-06T10:48:38;15.30;;;9.40;;
73642;SDS011;61938;48.652;9.292;2023-04-06T10:51:12;14.00;;;7.05;;
73642;SDS011;61938;48.652;9.292;2023-04-06T10:53:39;13.90;;;7.15;;
73642;SDS011;61938;48.652;9.292;2023-04-06T10:56:09;13.57;;;7.60;;
73642;SDS011;61938;48.652;9.292;2023-04-06T10:58:37;12.30;;;7.50;;
73642;SDS011;61938;48.652;9.292;2023-04-06T11:01:03;18.17;;;8.45;;
73642;SDS011;61938;48.652;9.292;2023-04-06T11:03:29;11.88;;;7.50;;
73642;SDS011;61938;48.652;9.292;2023-04-06T11:06:06;11.27;;;7.07;;
73642;SDS011;61938;48.652;9.292;2023-04-06T11:08:32;13.02;;;6.75;;
73642;SDS011;61938;48.652;9.292;2023-04-06T11:11:09;11.15;;;7.10;;
73642;SDS011;61938;48.652;9.292;2023-04-06T11:13:44;14.55;;;7.82;;
73642;SDS011;61938;48.652;9.292;2023-04-06T11:16:12;16.17;;;7.22;;
73642;SDS011;61938;48.652;9.292;2023-04-06T11:21:14;18.50;;;8.60;;
73642;SDS011;61938;48.652;9.292;2023-04-06T11:23:39;15.45;;;8.75;;
73642;SDS011;61938;48.652;9.292;2023-04-06T11:26:09;14.00;;;8.00;;
73642;SDS011;61938;48.652;9.292;2023-04-06T11:28:36;17.10;;;8.23;;
73642;SDS011;61938;48.652;9.292;2023-04-06T11:31:02;12.35;;;7.18;;
73642;SDS011;61938;48.652;9.292;2023-04-06T11:33:28;13.80;;;7.50;;
73642;SDS011;61938;48.652;9.292;2023-04-06T11:35:56;11.00;;;6.55;;
73642;SDS011;61938;48.652;9.292;2023-04-06T11:38:22;15.60;;;7.13;;
73642;SDS011;61938;48.652;9.292;2023-04-06T11:40:52;11.48;;;6.68;;
73642;SDS011;61938;48.652;9.292;2023-04-06T11:43:25;13.85;;;7.90;;
73642;SDS011;61938;48.652;9.292;2023-04-06T11:46:01;13.52;;;7.72;;
73642;SDS011;61938;48.652;9.292;2023-04-06T11:48:28;13.00;;;7.78;;
73642;SDS011;61938;48.652;9.292;2023-04-06T11:50:55;13.00;;;7.72;;
73642;SDS011;61938;48.652;9.292;2023-04-06T11:53:22;10.65;;;6.18;;
73642;SDS011;61938;48.652;9.292;2023-04-06T11:55:48;11.90;;;6.70;;
73642;SDS011;61938;48.652;9.292;2023-04-06T11:58:13;9.85;;;6.13;;
73642;SDS011;61938;48.652;9.292;2023-04-06T12:00:39;11.88;;;5.55;;
73642;SDS011;61938;48.652;9.292;2023-04-06T12:03:09;12.05;;;6.32;;
73642;SDS011;61938;48.652;9.292;2023-04-06T12:05:35;11.38;;;6.43;;
73642;SDS011;61938;48.652;9.292;2023-04-06T12:08:01;11.10;;;6.75;;
73642;SDS011;61938;48.652;9.292;2023-04-06T12:10:26;14.90;;;6.38;;
73642;SDS011;61938;48.652;9.292;2023-04-06T12:12:52;12.32;;;7.10;;
73642;SDS011;61938;48.652;9.292;2023-04-06T12:15:17;11.00;;;6.57;;
73642;SDS011;61938;48.652;9.292;2023-04-06T12:17:43;10.38;;;6.00;;
73642;SDS011;61938;48.652;9.292;2023-04-06T12:20:09;9.55;;;6.20;;
73642;SDS011;61938;48.652;9.292;2023-04-06T12:22:35;9.48;;;5.90;;
73642;SDS011;61938;48.652;9.292;2023-04-06T12:25:01;9.60;;;5.75;;
73642;SDS011;61938;48.652;9.292;2023-04-06T12:27:26;9.60;;;5.63;;
73642;SDS011;61938;48.652;9.292;2023-04-06T12:29:53;11.77;;;5.60;;
73642;SDS011;61938;48.652;9.292;2023-04-06T12:32:18;13.07;;;5.63;;
73642;SDS011;61938;48.652;9.292;2023-04-06T12:34:44;12.57;;;5.78;;
73642;SDS011;61938;48.652;9.292;2023-04-06T12:37:10;10.43;;;5.63;;
73642;SDS011;61938;48.652;9.292;2023-04-06T12:39:35;9.38;;;5.35;;
73642;SDS011;61938;48.652;9.292;2023-04-06T12:42:01;8.65;;;5.13;;
73642;SDS011;61938;48.652;9.292;2023-04-06T12:44:27;8.57;;;5.38;;
73642;SDS011;61938;48.652;9.292;2023-04-06T12:46:53;12.13;;;6.18;;
73642;SDS011;61938;48.652;9.292;2023-04-06T12:49:20;9.52;;;5.43;;
73642;SDS011;61938;48.652;9.292;2023-04-06T12:51:46;16.50;;;6.30;;
73642;SDS011;61938;48.652;9.292;2023-04-06T12:54:12;10.15;;;5.38;;
73642;SDS011;61938;48.652;9.292;2023-04-06T12:56:38;11.98;;;6.30;;
73642;SDS011;61938;48.652;9.292;2023-04-06T12:59:04;8.38;;;4.93;;
73642;SDS011;61938;48.652;9.292;2023-04-06T13:01:30;11.15;;;5.47;;
73642;SDS011;61938;48.652;9.292;2023-04-06T13:03:56;9.15;;;5.13;;
73642;SDS011;61938;48.652;9.292;2023-04-06T13:06:22;10.55;;;5.78;;
73642;SDS011;61938;48.652;9.292;2023-04-06T13:08:52;11.75;;;4.88;;
73642;SDS011;61938;48.652;9.292;2023-04-06T13:11:17;8.30;;;4.53;;
73642;SDS011;61938;48.652;9.292;2023-04-06T13:13:44;10.07;;;5.80;;
73642;SDS011;61938;48.652;9.292;2023-04-06T13:16:09;11.38;;;5.63;;
73642;SDS011;61938;48.652;9.292;2023-04-06T13:18:35;9.52;;;5.18;;
73642;SDS011;61938;48.652;9.292;2023-04-06T13:21:03;10.32;;;5.55;;
73642;SDS011;61938;48.652;9.292;2023-04-06T13:23:29;9.07;;;5.30;;
73642;SDS011;61938;48.652;9.292;2023-04-06T13:26:05;9.60;;;5.43;;
73642;SDS011;61938;48.652;9.292;2023-04-06T13:28:32;10.98;;;6.20;;
73642;SDS011;61938;48.652;9.292;2023-04-06T13:30:59;11.10;;;5.75;;
73642;SDS011;61938;48.652;9.292;2023-04-06T13:33:26;13.35;;;5.75;;
73642;SDS011;61938;48.652;9.292;2023-04-06T13:35:52;8.40;;;5.15;;
73642;SDS011;61938;48.652;9.292;2023-04-06T13:38:18;10.18;;;5.13;;
73642;SDS011;61938;48.652;9.292;2023-04-06T13:40:44;8.82;;;5.00;;
73642;SDS011;61938;48.652;9.292;2023-04-06T13:43:09;11.00;;;5.07;;
73642;SDS011;61938;48.652;9.292;2023-04-06T13:45:36;10.48;;;5.68;;
73642;SDS011;61938;48.652;9.292;2023-04-06T13:48:02;10.98;;;5.63;;
73642;SDS011;61938;48.652;9.292;2023-04-06T13:50:28;8.55;;;5.25;;
73642;SDS011;61938;48.652;9.292;2023-04-06T13:52:54;9.05;;;5.25;;
73642;SDS011;61938;48.652;9.292;2023-04-06T13:55:21;10.55;;;5.15;;
73642;SDS011;61938;48.652;9.292;2023-04-06T13:57:49;17.75;;;5.75;;
73642;SDS011;61938;48.652;9.292;2023-04-06T14:00:15;19.83;;;5.75;;
73642;SDS011;61938;48.652;9.292;2023-04-06T14:02:40;10.45;;;5.13;;
73642;SDS011;61938;48.652;9.292;2023-04-06T14:05:09;8.07;;;4.93;;
73642;SDS011;61938;48.652;9.292;2023-04-06T14:07:34;12.23;;;5.00;;
73642;SDS011;61938;48.652;9.292;2023-04-06T14:10:00;12.35;;;5.68;;
73642;SDS011;61938;48.652;9.292;2023-04-06T14:12:26;12.38;;;6.10;;
73642;SDS011;61938;48.652;9.292;2023-04-06T14:14:52;11.40;;;5.82;;
73642;SDS011;61938;48.652;9.292;2023-04-06T14:17:17;13.75;;;5.65;;
73642;SDS011;61938;48.652;9.292;2023-04-06T14:19:43;13.43;;;5.85;;
73642;SDS011;61938;48.652;9.292;2023-04-06T14:22:09;8.73;;;5.28;;
73642;SDS011;61938;48.652;9.292;2023-04-06T14:24:35;10.55;;;5.47;;
73642;SDS011;61938;48.652;9.292;2023-04-06T14:27:01;12.82;;;5.32;;
73642;SDS011;61938;48.652;9.292;2023-04-06T14:29:30;11.98;;;5.95;;
73642;SDS011;61938;48.652;9.292;2023-04-06T14:31:56;9.50;;;4.80;;